sensor_id;sensor_type;location;lat;lon;timestamp;pressure;altitude;pressure_sealevel;temperature;humidity
62124;BME280;48110;47.532;19.078;2024-03-25T00:02:38;99351.78;;;4.70;100.00
62124;BME280;48110;47.532;19.078;2024-03-25T00:05:41;99357.88;;;4.71;100.00
62124;BME280;48110;47.532;19.078;2024-03-25T00:08:42;99355.72;;;4.92;100.00
62124;BME280;48110;47.532;19.078;2024-03-25T00:11:45;99357.75;;;4.80;100.00
62124;BME280;48110;47.532;19.078;2024-03-25T00:14:47;99355.00;;;4.82;100.00
62124;BME280;48110;47.532;19.078;2024-03-25T00:17:50;99361.56;;;4.86;100.00
62124;BME280;48110;47.532;19.078;2024-03-25T00:20:52;99351.56;;;4.90;100.00
62124;BME280;48110;47.532;19.078;2024-03-25T00:23:54;99352.50;;;4.80;100.00
62124;BME280;48110;47.532;19.078;2024-03-25T00:26:59;99349.22;;;4.78;100.00
62124;BME280;48110;47.532;19.078;2024-03-25T00:30:02;99353.13;;;4.74;100.00
62124;BME280;48110;47.532;19.078;2024-03-25T00:33:04;99351.97;;;4.69;100.00
62124;BME280;48110;47.532;19.078;2024-03-25T00:36:08;99342.78;;;4.73;100.00
62124;BME280;48110;47.532;19.078;2024-03-25T00:39:10;99345.34;;;4.65;100.00
62124;BME280;48110;47.532;19.078;2024-03-25T00:42:13;99350.09;;;4.61;100.00
62124;BME280;48110;47.532;19.078;2024-03-25T00:45:14;99344.25;;;4.67;100.00
62124;BME280;48110;47.532;19.078;2024-03-25T00:48:17;99337.03;;;4.69;100.00
62124;BME280;48110;47.532;19.078;2024-03-25T00:51:19;99330.87;;;4.61;100.00
62124;BME280;48110;47.532;19.078;2024-03-25T00:54:22;99337.03;;;4.44;100.00
62124;BME280;48110;47.532;19.078;2024-03-25T00:57:25;99329.38;;;4.50;100.00
62124;BME280;48110;47.532;19.078;2024-03-25T01:00:27;99338.72;;;4.53;100.00
62124;BME280;48110;47.532;19.078;2024-03-25T01:03:29;99337.63;;;4.37;100.00
62124;BME280;48110;47.532;19.078;2024-03-25T01:06:31;99345.56;;;4.20;100.00
62124;BME280;48110;47.532;19.078;2024-03-25T01:09:33;99346.28;;;4.30;100.00
62124;BME280;48110;47.532;19.078;2024-03-25T01:12:39;99336.81;;;4.37;100.00
62124;BME280;48110;47.532;19.078;2024-03-25T01:15:41;99339.44;;;4.37;100.00
62124;BME280;48110;47.532;19.078;2024-03-25T01:18:44;99339.50;;;4.45;100.00
62124;BME280;48110;47.532;19.078;2024-03-25T01:21:46;99335.59;;;4.49;100.00
62124;BME280;48110;47.532;19.078;2024-03-25T01:24:48;99338.50;;;4.46;100.00
62124;BME280;48110;47.532;19.078;2024-03-25T01:27:50;99341.66;;;4.24;100.00
62124;BME280;48110;47.532;19.078;2024-03-25T01:30:52;99345.37;;;4.21;100.00
62124;BME280;48110;47.532;19.078;2024-03-25T01:33:55;99342.84;;;4.12;100.00
62124;BME280;48110;47.532;19.078;2024-03-25T01:36:57;99335.72;;;4.22;100.00
62124;BME280;48110;47.532;19.078;2024-03-25T01:39:59;99335.66;;;4.14;100.00
62124;BME280;48110;47.532;19.078;2024-03-25T01:43:03;99322.53;;;4.14;100.00
62124;BME280;48110;47.532;19.078;2024-03-25T01:46:05;99334.38;;;4.18;100.00
62124;BME280;48110;47.532;19.078;2024-03-25T01:49:08;99330.91;;;4.17;100.00
62124;BME280;48110;47.532;19.078;2024-03-25T01:52:10;99328.97;;;4.19;100.00
62124;BME280;48110;47.532;19.078;2024-03-25T01:55:20;99313.69;;;4.15;100.00
62124;BME280;48110;47.532;19.078;2024-03-25T01:58:23;99314.28;;;4.09;100.00
62124;BME280;48110;47.532;19.078;2024-03-25T02:01:28;99311.06;;;3.97;100.00
62124;BME280;48110;47.532;19.078;2024-03-25T02:04:31;99320.22;;;3.93;100.00
62124;BME280;48110;47.532;19.078;2024-03-25T02:07:35;99329.78;;;3.76;100.00
62124;BME280;48110;47.532;19.078;2024-03-25T02:10:38;99323.91;;;3.65;100.00
62124;BME280;48110;47.532;19.078;2024-03-25T02:13:41;99323.41;;;3.61;100.00
62124;BME280;48110;47.532;19.078;2024-03-25T02:16:43;99328.56;;;3.71;100.00
62124;BME280;48110;47.532;19.078;2024-03-25T02:19:45;99320.63;;;3.80;100.00
62124;BME280;48110;47.532;19.078;2024-03-25T02:22:48;99325.78;;;3.90;100.00
62124;BME280;48110;47.532;19.078;2024-03-25T02:25:50;99318.22;;;4.05;100.00
62124;BME280;48110;47.532;19.078;2024-03-25T02:28:54;99328.38;;;4.08;100.00
62124;BME280;48110;47.532;19.078;2024-03-25T02:31:56;99324.69;;;4.18;100.00
62124;BME280;48110;47.532;19.078;2024-03-25T02:34:59;99325.91;;;4.24;100.00
62124;BME280;48110;47.532;19.078;2024-03-25T02:38:03;99317.78;;;4.35;100.00
62124;BME280;48110;47.532;19.078;2024-03-25T02:41:05;99326.66;;;4.42;100.00
62124;BME280;48110;47.532;19.078;2024-03-25T02:44:09;99326.53;;;4.44;100.00
62124;BME280;48110;47.532;19.078;2024-03-25T02:47:12;99326.03;;;4.40;100.00
62124;BME280;48110;47.532;19.078;2024-03-25T02:50:14;99323.53;;;4.38;100.00
62124;BME280;48110;47.532;19.078;2024-03-25T02:53:16;99330.22;;;4.33;100.00
62124;BME280;48110;47.532;19.078;2024-03-25T02:56:18;99323.50;;;4.30;100.00
62124;BME280;48110;47.532;19.078;2024-03-25T02:59:20;99328.88;;;4.29;100.00
62124;BME280;48110;47.532;19.078;2024-03-25T03:02:22;99333.69;;;4.33;100.00
62124;BME280;48110;47.532;19.078;2024-03-25T03:05:25;99338.78;;;4.35;100.00
62124;BME280;48110;47.532;19.078;2024-03-25T03:08:27;99343.03;;;4.36;100.00
62124;BME280;48110;47.532;19.078;2024-03-25T03:11:29;99342.84;;;4.29;100.00
62124;BME280;48110;47.532;19.078;2024-03-25T03:14:31;99343.34;;;4.33;100.00
62124;BME280;48110;47.532;19.078;2024-03-25T03:17:33;99351.09;;;4.34;100.00
62124;BME280;48110;47.532;19.078;2024-03-25T03:20:35;99348.09;;;4.29;100.00
62124;BME280;48110;47.532;19.078;2024-03-25T03:23:37;99360.84;;;4.24;100.00
62124;BME280;48110;47.532;19.078;2024-03-25T03:26:39;99357.31;;;4.33;100.00
62124;BME280;48110;47.532;19.078;2024-03-25T03:29:41;99361.50;;;4.44;100.00
62124;BME280;48110;47.532;19.078;2024-03-25T03:32:43;99362.72;;;4.58;100.00
62124;BME280;48110;47.532;19.078;2024-03-25T03:35:46;99354.63;;;4.77;100.00
62124;BME280;48110;47.532;19.078;2024-03-25T03:38:50;99362.28;;;4.96;100.00
62124;BME280;48110;47.532;19.078;2024-03-25T03:41:52;99362.19;;;5.06;100.00
62124;BME280;48110;47.532;19.078;2024-03-25T03:44:54;99354.50;;;5.12;100.00
62124;BME280;48110;47.532;19.078;2024-03-25T03:47:56;99360.09;;;5.17;100.00
62124;BME280;48110;47.532;19.078;2024-03-25T03:50:58;99361.56;;;5.20;100.00
62124;BME280;48110;47.532;19.078;2024-03-25T03:54:01;99363.09;;;5.22;100.00
62124;BME280;48110;47.532;19.078;2024-03-25T03:57:03;99362.56;;;5.19;100.00
62124;BME280;48110;47.532;19.078;2024-03-25T04:00:06;99372.44;;;5.25;100.00
62124;BME280;48110;47.532;19.078;2024-03-25T04:03:13;99362.56;;;5.19;100.00
62124;BME280;48110;47.532;19.078;2024-03-25T04:06:15;99366.69;;;5.21;100.00
62124;BME280;48110;47.532;19.078;2024-03-25T04:09:17;99364.06;;;5.30;100.00
62124;BME280;48110;47.532;19.078;2024-03-25T04:12:20;99376.09;;;5.32;100.00
62124;BME280;48110;47.532;19.078;2024-03-25T04:15:22;99372.16;;;5.36;100.00
62124;BME280;48110;47.532;19.078;2024-03-25T04:18:24;99376.47;;;5.45;100.00
62124;BME280;48110;47.532;19.078;2024-03-25T04:21:26;99371.69;;;5.49;100.00
62124;BME280;48110;47.532;19.078;2024-03-25T04:24:28;99384.53;;;5.52;100.00
62124;BME280;48110;47.532;19.078;2024-03-25T04:27:30;99383.41;;;5.54;100.00
62124;BME280;48110;47.532;19.078;2024-03-25T04:30:33;99389.97;;;5.58;100.00
62124;BME280;48110;47.532;19.078;2024-03-25T04:33:35;99389.00;;;5.59;100.00
62124;BME280;48110;47.532;19.078;2024-03-25T04:36:38;99390.00;;;5.66;100.00
62124;BME280;48110;47.532;19.078;2024-03-25T04:39:40;99396.59;;;5.71;100.00
62124;BME280;48110;47.532;19.078;2024-03-25T04:42:42;99392.97;;;5.72;100.00
62124;BME280;48110;47.532;19.078;2024-03-25T04:45:44;99400.38;;;5.76;100.00
62124;BME280;48110;47.532;19.078;2024-03-25T04:48:46;99399.94;;;5.81;100.00
62124;BME280;48110;47.532;19.078;2024-03-25T04:51:49;99397.59;;;5.86;100.00
62124;BME280;48110;47.532;19.078;2024-03-25T04:54:53;99403.69;;;5.86;100.00
62124;BME280;48110;47.532;19.078;2024-03-25T04:57:56;99406.22;;;5.88;100.00
62124;BME280;48110;47.532;19.078;2024-03-25T05:00:58;99416.25;;;5.92;100.00
62124;BME280;48110;47.532;19.078;2024-03-25T05:04:00;99416.75;;;5.96;100.00
62124;BME280;48110;47.532;19.078;2024-03-25T05:07:02;99421.22;;;6.03;100.00
62124;BME280;48110;47.532;19.078;2024-03-25T05:10:05;99420.88;;;5.98;100.00
62124;BME280;48110;47.532;19.078;2024-03-25T05:13:07;99422.19;;;6.02;100.00
62124;BME280;48110;47.532;19.078;2024-03-25T05:16:10;99431.06;;;6.01;100.00
62124;BME280;48110;47.532;19.078;2024-03-25T05:19:13;99433.88;;;6.08;100.00
62124;BME280;48110;47.532;19.078;2024-03-25T05:22:15;99426.34;;;6.13;100.00
62124;BME280;48110;47.532;19.078;2024-03-25T05:25:18;99429.28;;;6.10;100.00
62124;BME280;48110;47.532;19.078;2024-03-25T05:28:20;99437.50;;;6.15;100.00
62124;BME280;48110;47.532;19.078;2024-03-25T05:31:23;99440.47;;;6.12;100.00
62124;BME280;48110;47.532;19.078;2024-03-25T05:34:26;99442.78;;;6.07;100.00
62124;BME280;48110;47.532;19.078;2024-03-25T05:37:29;99451.00;;;6.04;100.00
62124;BME280;48110;47.532;19.078;2024-03-25T05:40:34;99457.41;;;6.01;100.00
62124;BME280;48110;47.532;19.078;2024-03-25T05:43:37;99463.16;;;5.97;100.00
62124;BME280;48110;47.532;19.078;2024-03-25T05:46:39;99456.56;;;5.93;100.00
62124;BME280;48110;47.532;19.078;2024-03-25T05:49:41;99458.31;;;5.84;100.00
62124;BME280;48110;47.532;19.078;2024-03-25T05:52:43;99459.28;;;5.83;100.00
62124;BME280;48110;47.532;19.078;2024-03-25T05:55:46;99464.59;;;5.91;100.00
62124;BME280;48110;47.532;19.078;2024-03-25T05:58:48;99461.94;;;5.83;100.00
62124;BME280;48110;47.532;19.078;2024-03-25T06:01:50;99470.94;;;5.73;100.00
62124;BME280;48110;47.532;19.078;2024-03-25T06:04:55;99468.50;;;5.71;100.00
62124;BME280;48110;47.532;19.078;2024-03-25T06:07:58;99471.97;;;5.80;100.00
62124;BME280;48110;47.532;19.078;2024-03-25T06:11:01;99461.69;;;5.94;100.00
62124;BME280;48110;47.532;19.078;2024-03-25T06:14:03;99465.44;;;5.92;100.00
62124;BME280;48110;47.532;19.078;2024-03-25T06:17:06;99469.72;;;5.93;100.00
62124;BME280;48110;47.532;19.078;2024-03-25T06:20:08;99466.94;;;6.02;100.00
62124;BME280;48110;47.532;19.078;2024-03-25T06:23:24;99469.44;;;6.12;100.00
62124;BME280;48110;47.532;19.078;2024-03-25T06:26:26;99469.25;;;6.05;100.00
62124;BME280;48110;47.532;19.078;2024-03-25T06:29:29;99467.69;;;6.29;100.00
62124;BME280;48110;47.532;19.078;2024-03-25T06:32:31;99474.56;;;6.30;100.00
62124;BME280;48110;47.532;19.078;2024-03-25T06:35:52;99470.34;;;6.53;100.00
62124;BME280;48110;47.532;19.078;2024-03-25T06:38:53;99478.19;;;7.18;100.00
62124;BME280;48110;47.532;19.078;2024-03-25T06:41:56;99481.66;;;7.65;100.00
62124;BME280;48110;47.532;19.078;2024-03-25T06:44:58;99484.56;;;8.17;100.00
62124;BME280;48110;47.532;19.078;2024-03-25T06:48:00;99482.44;;;8.13;100.00
62124;BME280;48110;47.532;19.078;2024-03-25T06:51:02;99490.66;;;9.09;100.00
62124;BME280;48110;47.532;19.078;2024-03-25T06:54:05;99489.38;;;9.93;100.00
62124;BME280;48110;47.532;19.078;2024-03-25T06:57:06;99489.44;;;10.71;99.40
62124;BME280;48110;47.532;19.078;2024-03-25T07:00:09;99493.81;;;9.56;100.00
62124;BME280;48110;47.532;19.078;2024-03-25T07:03:15;99502.38;;;8.92;100.00
62124;BME280;48110;47.532;19.078;2024-03-25T07:06:18;99512.00;;;9.07;100.00
62124;BME280;48110;47.532;19.078;2024-03-25T07:09:20;99498.91;;;10.02;100.00
62124;BME280;48110;47.532;19.078;2024-03-25T07:12:23;99511.56;;;10.57;100.00
62124;BME280;48110;47.532;19.078;2024-03-25T07:15:24;99505.22;;;9.42;100.00
62124;BME280;48110;47.532;19.078;2024-03-25T07:18:26;99502.84;;;8.81;100.00
62124;BME280;48110;47.532;19.078;2024-03-25T07:21:28;99502.84;;;9.33;100.00
62124;BME280;48110;47.532;19.078;2024-03-25T07:24:32;99503.41;;;9.43;100.00
62124;BME280;48110;47.532;19.078;2024-03-25T07:27:34;99508.91;;;10.57;94.44
62124;BME280;48110;47.532;19.078;2024-03-25T07:30:36;99500.28;;;11.81;83.74
62124;BME280;48110;47.532;19.078;2024-03-25T07:33:38;99512.03;;;12.67;72.87
62124;BME280;48110;47.532;19.078;2024-03-25T07:36:40;99510.12;;;12.54;73.85
62124;BME280;48110;47.532;19.078;2024-03-25T07:39:41;99508.13;;;11.06;74.27
62124;BME280;48110;47.532;19.078;2024-03-25T07:42:45;99524.75;;;9.71;84.68
62124;BME280;48110;47.532;19.078;2024-03-25T07:45:47;99513.81;;;9.07;94.70
62124;BME280;48110;47.532;19.078;2024-03-25T07:48:49;99522.97;;;8.59;100.00
62124;BME280;48110;47.532;19.078;2024-03-25T07:51:51;99521.37;;;8.50;100.00
62124;BME280;48110;47.532;19.078;2024-03-25T07:54:54;99519.16;;;8.61;100.00
62124;BME280;48110;47.532;19.078;2024-03-25T07:57:56;99514.75;;;8.77;100.00
62124;BME280;48110;47.532;19.078;2024-03-25T08:00:58;99518.53;;;8.97;100.00
62124;BME280;48110;47.532;19.078;2024-03-25T08:04:00;99519.88;;;9.30;99.21
62124;BME280;48110;47.532;19.078;2024-03-25T08:07:04;99527.13;;;9.36;95.78
62124;BME280;48110;47.532;19.078;2024-03-25T08:10:06;99525.16;;;10.33;88.27
62124;BME280;48110;47.532;19.078;2024-03-25T08:13:08;99527.41;;;10.00;87.06
62124;BME280;48110;47.532;19.078;2024-03-25T08:16:10;99530.69;;;10.02;84.30
62124;BME280;48110;47.532;19.078;2024-03-25T08:19:12;99525.41;;;9.43;87.56
62124;BME280;48110;47.532;19.078;2024-03-25T08:22:15;99533.06;;;9.38;90.78
62124;BME280;48110;47.532;19.078;2024-03-25T08:25:17;99532.59;;;9.49;91.77
62124;BME280;48110;47.532;19.078;2024-03-25T08:28:19;99524.31;;;9.52;90.51
62124;BME280;48110;47.532;19.078;2024-03-25T08:31:22;99533.09;;;9.53;88.76
62124;BME280;48110;47.532;19.078;2024-03-25T08:34:24;99520.47;;;9.55;88.44
62124;BME280;48110;47.532;19.078;2024-03-25T08:37:27;99520.34;;;9.92;85.92
62124;BME280;48110;47.532;19.078;2024-03-25T08:40:29;99526.69;;;10.42;82.31
62124;BME280;48110;47.532;19.078;2024-03-25T08:43:31;99536.44;;;10.56;79.59
62124;BME280;48110;47.532;19.078;2024-03-25T08:46:33;99519.31;;;10.37;77.65
62124;BME280;48110;47.532;19.078;2024-03-25T08:49:35;99521.97;;;10.08;77.90
62124;BME280;48110;47.532;19.078;2024-03-25T08:52:37;99529.06;;;9.86;nan
62124;BME280;48110;47.532;19.078;2024-03-25T08:55:45;99515.09;;;9.48;79.04
62124;BME280;48110;47.532;19.078;2024-03-25T08:58:47;99521.03;;;9.80;80.31
62124;BME280;48110;47.532;19.078;2024-03-25T09:01:49;99523.19;;;9.32;82.80
62124;BME280;48110;47.532;19.078;2024-03-25T09:04:52;99527.78;;;9.38;81.32
62124;BME280;48110;47.532;19.078;2024-03-25T09:07:54;99526.66;;;9.33;83.74
62124;BME280;48110;47.532;19.078;2024-03-25T09:10:57;99529.50;;;9.90;81.43
62124;BME280;48110;47.532;19.078;2024-03-25T09:14:08;99512.47;;;10.14;77.32
62124;BME280;48110;47.532;19.078;2024-03-25T09:17:10;99516.53;;;9.66;78.35
62124;BME280;48110;47.532;19.078;2024-03-25T09:20:12;99502.12;;;9.53;78.68
62124;BME280;48110;47.532;19.078;2024-03-25T09:23:23;99511.41;;;9.64;77.87
62124;BME280;48110;47.532;19.078;2024-03-25T09:26:25;99515.13;;;10.14;74.04
62124;BME280;48110;47.532;19.078;2024-03-25T09:29:27;99508.38;;;10.26;72.43
62124;BME280;48110;47.532;19.078;2024-03-25T09:32:29;99507.81;;;10.30;71.86
62124;BME280;48110;47.532;19.078;2024-03-25T09:35:32;99515.72;;;9.50;80.63
62124;BME280;48110;47.532;19.078;2024-03-25T09:38:34;99514.38;;;8.57;100.00
62124;BME280;48110;47.532;19.078;2024-03-25T09:41:37;99518.31;;;8.38;100.00
62124;BME280;48110;47.532;19.078;2024-03-25T09:44:41;99521.03;;;8.53;100.00
62124;BME280;48110;47.532;19.078;2024-03-25T09:47:47;99514.38;;;8.57;100.00
62124;BME280;48110;47.532;19.078;2024-03-25T09:50:50;99508.81;;;8.75;100.00
62124;BME280;48110;47.532;19.078;2024-03-25T09:53:54;99511.09;;;9.15;100.00
62124;BME280;48110;47.532;19.078;2024-03-25T09:56:56;99519.63;;;9.40;97.59
62124;BME280;48110;47.532;19.078;2024-03-25T09:59:59;99508.41;;;9.23;89.84
62124;BME280;48110;47.532;19.078;2024-03-25T10:03:01;99516.53;;;9.36;86.87
62124;BME280;48110;47.532;19.078;2024-03-25T10:06:03;99524.19;;;9.31;85.00
62124;BME280;48110;47.532;19.078;2024-03-25T10:09:05;99525.19;;;9.45;83.40
62124;BME280;48110;47.532;19.078;2024-03-25T10:12:12;99511.34;;;9.43;77.47
62124;BME280;48110;47.532;19.078;2024-03-25T10:15:17;99505.78;;;9.82;81.85
62124;BME280;48110;47.532;19.078;2024-03-25T10:18:19;99511.97;;;9.89;73.12
62124;BME280;48110;47.532;19.078;2024-03-25T10:21:21;99506.81;;;10.17;71.74
62124;BME280;48110;47.532;19.078;2024-03-25T10:24:23;99505.53;;;10.27;70.87
62124;BME280;48110;47.532;19.078;2024-03-25T10:27:25;99507.78;;;10.45;71.51
62124;BME280;48110;47.532;19.078;2024-03-25T10:30:28;99507.34;;;10.63;67.08
62124;BME280;48110;47.532;19.078;2024-03-25T10:33:30;99492.75;;;10.52;67.77
62124;BME280;48110;47.532;19.078;2024-03-25T10:36:33;99505.03;;;10.38;66.81
62124;BME280;48110;47.532;19.078;2024-03-25T10:39:40;99494.84;;;11.06;64.90
62124;BME280;48110;47.532;19.078;2024-03-25T10:42:46;99499.00;;;11.15;62.28
62124;BME280;48110;47.532;19.078;2024-03-25T10:45:55;99497.19;;;10.94;63.07
62124;BME280;48110;47.532;19.078;2024-03-25T10:49:05;99508.38;;;11.11;64.20
62124;BME280;48110;47.532;19.078;2024-03-25T10:52:08;99506.34;;;11.13;61.56
62124;BME280;48110;47.532;19.078;2024-03-25T10:55:11;99499.97;;;11.35;62.62
62124;BME280;48110;47.532;19.078;2024-03-25T10:58:15;99503.50;;;11.76;62.53
62124;BME280;48110;47.532;19.078;2024-03-25T11:01:19;99514.31;;;12.16;60.46
62124;BME280;48110;47.532;19.078;2024-03-25T11:04:23;99506.53;;;14.18;55.40
62124;BME280;48110;47.532;19.078;2024-03-25T11:07:30;99505.28;;;14.14;51.60
62124;BME280;48110;47.532;19.078;2024-03-25T11:10:32;99498.91;;;14.22;50.61
62124;BME280;48110;47.532;19.078;2024-03-25T11:13:36;99480.91;;;12.94;53.24
62124;BME280;48110;47.532;19.078;2024-03-25T11:16:39;99508.56;;;11.71;57.64
62124;BME280;48110;47.532;19.078;2024-03-25T11:19:42;99511.31;;;10.52;62.41
62124;BME280;48110;47.532;19.078;2024-03-25T11:22:51;99532.03;;;8.64;100.00
62124;BME280;48110;47.532;19.078;2024-03-25T11:25:56;99511.47;;;7.82;100.00
62124;BME280;48110;47.532;19.078;2024-03-25T11:28:59;99499.69;;;7.54;100.00
62124;BME280;48110;47.532;19.078;2024-03-25T11:32:05;99493.56;;;7.69;100.00
62124;BME280;48110;47.532;19.078;2024-03-25T11:35:07;99491.06;;;8.38;100.00
62124;BME280;48110;47.532;19.078;2024-03-25T11:38:09;99491.19;;;11.34;100.00
62124;BME280;48110;47.532;19.078;2024-03-25T11:41:12;99508.19;;;13.29;88.78
62124;BME280;48110;47.532;19.078;2024-03-25T11:44:14;99509.28;;;12.41;76.71
62124;BME280;48110;47.532;19.078;2024-03-25T11:47:19;99522.78;;;11.57;82.07
62124;BME280;48110;47.532;19.078;2024-03-25T11:50:21;99504.66;;;9.91;80.07
62124;BME280;48110;47.532;19.078;2024-03-25T11:53:23;99505.13;;;9.50;83.50
62124;BME280;48110;47.532;19.078;2024-03-25T11:56:26;99508.19;;;11.40;74.47
62124;BME280;48110;47.532;19.078;2024-03-25T11:59:28;99517.59;;;16.20;60.94
62124;BME280;48110;47.532;19.078;2024-03-25T12:02:30;99516.25;;;16.89;47.87
62124;BME280;48110;47.532;19.078;2024-03-25T12:05:33;99498.44;;;18.39;43.96
62124;BME280;48110;47.532;19.078;2024-03-25T12:08:35;99514.53;;;20.23;38.84
62124;BME280;48110;47.532;19.078;2024-03-25T12:11:47;99493.72;;;18.18;45.81
62124;BME280;48110;47.532;19.078;2024-03-25T12:14:50;99497.25;;;16.01;46.99
62124;BME280;48110;47.532;19.078;2024-03-25T12:17:53;99504.09;;;13.20;56.00
62124;BME280;48110;47.532;19.078;2024-03-25T12:20:58;99507.31;;;11.67;61.52
62124;BME280;48110;47.532;19.078;2024-03-25T12:24:00;99514.22;;;10.78;68.07
62124;BME280;48110;47.532;19.078;2024-03-25T12:27:02;99529.16;;;10.43;76.53
62124;BME280;48110;47.532;19.078;2024-03-25T12:30:07;99524.44;;;10.60;80.48
62124;BME280;48110;47.532;19.078;2024-03-25T12:33:08;99528.47;;;10.35;86.10
62124;BME280;48110;47.532;19.078;2024-03-25T12:36:14;99520.53;;;10.06;86.44
62124;BME280;48110;47.532;19.078;2024-03-25T12:39:17;99533.72;;;13.76;68.15
62124;BME280;48110;47.532;19.078;2024-03-25T12:42:20;99513.78;;;14.81;58.90
62124;BME280;48110;47.532;19.078;2024-03-25T12:45:22;99528.25;;;14.66;58.01
62124;BME280;48110;47.532;19.078;2024-03-25T12:48:27;99518.41;;;13.05;63.33
62124;BME280;48110;47.532;19.078;2024-03-25T12:51:29;99514.13;;;12.17;64.07
62124;BME280;48110;47.532;19.078;2024-03-25T12:54:32;99518.53;;;11.97;65.86
62124;BME280;48110;47.532;19.078;2024-03-25T12:57:34;99511.63;;;10.85;68.02
62124;BME280;48110;47.532;19.078;2024-03-25T13:00:37;99518.63;;;9.99;70.68
62124;BME280;48110;47.532;19.078;2024-03-25T13:03:40;99524.03;;;9.91;74.86
62124;BME280;48110;47.532;19.078;2024-03-25T13:06:42;99528.53;;;11.05;67.22
62124;BME280;48110;47.532;19.078;2024-03-25T13:09:44;99524.94;;;13.56;58.45
62124;BME280;48110;47.532;19.078;2024-03-25T13:12:46;99535.44;;;17.27;49.08
62124;BME280;48110;47.532;19.078;2024-03-25T13:15:48;99539.59;;;16.40;47.97
62124;BME280;48110;47.532;19.078;2024-03-25T13:18:50;99540.56;;;13.39;55.30
62124;BME280;48110;47.532;19.078;2024-03-25T13:21:52;99527.81;;;11.73;60.75
62124;BME280;48110;47.532;19.078;2024-03-25T13:24:54;99522.50;;;10.69;65.79
62124;BME280;48110;47.532;19.078;2024-03-25T13:27:56;99529.66;;;10.32;69.94
62124;BME280;48110;47.532;19.078;2024-03-25T13:30:58;99529.94;;;9.93;72.21
62124;BME280;48110;47.532;19.078;2024-03-25T13:34:00;99532.50;;;11.16;69.09
62124;BME280;48110;47.532;19.078;2024-03-25T13:37:02;99534.09;;;15.81;53.76
62124;BME280;48110;47.532;19.078;2024-03-25T13:40:05;99526.78;;;15.27;52.03
62124;BME280;48110;47.532;19.078;2024-03-25T13:43:08;99522.28;;;12.77;58.15
62124;BME280;48110;47.532;19.078;2024-03-25T13:46:12;99515.19;;;11.82;61.85
62124;BME280;48110;47.532;19.078;2024-03-25T13:49:15;99523.00;;;11.28;66.35
62124;BME280;48110;47.532;19.078;2024-03-25T13:52:20;99521.09;;;10.52;67.68
62124;BME280;48110;47.532;19.078;2024-03-25T13:55:22;99531.62;;;9.80;71.56
62124;BME280;48110;47.532;19.078;2024-03-25T13:58:24;99528.78;;;9.67;72.47
62124;BME280;48110;47.532;19.078;2024-03-25T14:01:27;99537.44;;;10.04;72.31
62124;BME280;48110;47.532;19.078;2024-03-25T14:04:30;99535.94;;;12.00;63.39
62124;BME280;48110;47.532;19.078;2024-03-25T14:07:31;99533.34;;;14.23;53.16
62124;BME280;48110;47.532;19.078;2024-03-25T14:10:35;99528.19;;;13.84;53.61
62124;BME280;48110;47.532;19.078;2024-03-25T14:13:37;99521.22;;;12.58;55.95
62124;BME280;48110;47.532;19.078;2024-03-25T14:16:39;99515.00;;;12.31;57.13
62124;BME280;48110;47.532;19.078;2024-03-25T14:19:41;99519.69;;;11.54;53.12
62124;BME280;48110;47.532;19.078;2024-03-25T14:22:44;99514.22;;;10.78;54.77
62124;BME280;48110;47.532;19.078;2024-03-25T14:25:46;99514.16;;;10.93;56.40
62124;BME280;48110;47.532;19.078;2024-03-25T14:28:48;99520.87;;;12.20;53.77
62124;BME280;48110;47.532;19.078;2024-03-25T14:31:50;99517.56;;;13.58;49.65
62124;BME280;48110;47.532;19.078;2024-03-25T14:34:52;99524.44;;;14.49;47.11
62124;BME280;48110;47.532;19.078;2024-03-25T14:37:54;99514.72;;;13.59;47.97
62124;BME280;48110;47.532;19.078;2024-03-25T14:40:57;99510.03;;;13.15;49.95
62124;BME280;48110;47.532;19.078;2024-03-25T14:43:59;99510.69;;;13.94;48.42
62124;BME280;48110;47.532;19.078;2024-03-25T14:47:02;99504.44;;;14.65;47.31
62124;BME280;48110;47.532;19.078;2024-03-25T14:50:04;99502.69;;;14.52;46.97
62124;BME280;48110;47.532;19.078;2024-03-25T14:53:10;99516.31;;;14.24;47.15
62124;BME280;48110;47.532;19.078;2024-03-25T14:56:12;99510.59;;;12.84;51.15
62124;BME280;48110;47.532;19.078;2024-03-25T14:59:14;99503.00;;;11.60;54.00
62124;BME280;48110;47.532;19.078;2024-03-25T15:02:17;99504.44;;;10.79;62.38
62124;BME280;48110;47.532;19.078;2024-03-25T15:05:20;99492.41;;;10.19;70.00
62124;BME280;48110;47.532;19.078;2024-03-25T15:08:21;99500.34;;;10.04;74.52
62124;BME280;48110;47.532;19.078;2024-03-25T15:11:24;99494.94;;;10.13;73.46
62124;BME280;48110;47.532;19.078;2024-03-25T15:14:28;99499.34;;;10.20;75.29
62124;BME280;48110;47.532;19.078;2024-03-25T15:17:32;99507.09;;;10.07;75.26
62124;BME280;48110;47.532;19.078;2024-03-25T15:20:34;99512.25;;;9.79;76.99
62124;BME280;48110;47.532;19.078;2024-03-25T15:23:36;99498.47;;;9.69;76.89
62124;BME280;48110;47.532;19.078;2024-03-25T15:26:38;99503.97;;;9.68;78.23
62124;BME280;48110;47.532;19.078;2024-03-25T15:29:41;99505.03;;;9.73;79.10
62124;BME280;48110;47.532;19.078;2024-03-25T15:32:43;99505.06;;;9.44;81.80
62124;BME280;48110;47.532;19.078;2024-03-25T15:35:45;99516.44;;;9.44;82.83
62124;BME280;48110;47.532;19.078;2024-03-25T15:38:47;99510.25;;;9.52;79.01
62124;BME280;48110;47.532;19.078;2024-03-25T15:41:50;99509.31;;;9.59;78.18
62124;BME280;48110;47.532;19.078;2024-03-25T15:44:52;99515.91;;;9.64;79.16
62124;BME280;48110;47.532;19.078;2024-03-25T15:47:55;99517.66;;;9.71;80.79
62124;BME280;48110;47.532;19.078;2024-03-25T15:50:57;99524.66;;;9.93;74.46
62124;BME280;48110;47.532;19.078;2024-03-25T15:53:59;99521.09;;;10.01;70.89
62124;BME280;48110;47.532;19.078;2024-03-25T15:57:01;99516.50;;;10.10;69.62
62124;BME280;48110;47.532;19.078;2024-03-25T16:00:05;99536.06;;;10.09;71.83